createdAt,value
2023-05-13T00:01:07.833Z,11.44
2023-05-13T00:03:08.310Z,11.40
2023-05-13T00:05:08.708Z,11.35
2023-05-13T00:07:09.034Z,11.32
2023-05-13T00:09:09.375Z,11.32
2023-05-13T00:11:10.293Z,11.29
2023-05-13T00:13:10.534Z,11.27
2023-05-13T00:15:10.936Z,11.18
2023-05-13T00:17:11.185Z,11.12
2023-05-13T00:19:11.658Z,11.08
2023-05-13T00:21:12.470Z,11.08
2023-05-13T00:23:12.753Z,11.00
2023-05-13T00:25:13.191Z,11.00
2023-05-13T00:27:13.511Z,10.96
2023-05-13T00:29:13.888Z,10.92
2023-05-13T00:31:14.209Z,10.86
2023-05-13T00:33:14.474Z,10.89
2023-05-13T00:35:14.788Z,10.78
2023-05-13T00:37:15.473Z,10.72
2023-05-13T00:39:15.810Z,10.69
2023-05-13T00:41:16.133Z,10.64
2023-05-13T00:43:16.448Z,10.56
2023-05-13T00:45:16.806Z,10.48
2023-05-13T00:47:17.146Z,10.35
2023-05-13T00:49:17.497Z,10.31
2023-05-13T00:51:17.864Z,10.25
2023-05-13T00:53:18.229Z,10.17
2023-05-13T00:55:18.461Z,10.07
2023-05-13T00:57:18.779Z,10.07
2023-05-13T00:59:19.427Z,10.09
2023-05-13T01:01:19.765Z,9.99
2023-05-13T01:03:20.242Z,9.94
2023-05-13T01:05:20.668Z,9.92
2023-05-13T01:07:20.954Z,9.89
2023-05-13T01:09:21.233Z,9.87
2023-05-13T01:11:21.577Z,9.98
2023-05-13T01:13:22.116Z,10.07
2023-05-13T01:15:22.469Z,10.04
2023-05-13T01:17:22.773Z,9.99
2023-05-13T01:19:23.036Z,9.94
2023-05-13T01:21:23.551Z,9.97
2023-05-13T01:23:23.793Z,9.91
2023-05-13T01:25:24.208Z,9.87
2023-05-13T01:27:24.432Z,10.12
2023-05-13T01:29:24.779Z,10.10
2023-05-13T01:31:25.583Z,10.02
2023-05-13T01:33:25.973Z,9.98
2023-05-13T01:35:26.242Z,9.84
2023-05-13T01:37:26.494Z,9.74
2023-05-13T01:39:26.900Z,9.72
2023-05-13T01:41:27.174Z,9.66
2023-05-13T01:43:27.452Z,9.62
2023-05-13T01:45:27.877Z,9.58
2023-05-13T01:47:28.223Z,9.55
2023-05-13T01:49:28.512Z,9.56
2023-05-13T01:51:28.811Z,9.64
2023-05-13T01:53:29.371Z,9.68
2023-05-13T01:55:29.627Z,9.68
2023-05-13T01:57:30.359Z,9.59
2023-05-13T01:59:30.708Z,9.51
2023-05-13T02:01:31.059Z,9.48
2023-05-13T02:03:31.455Z,9.46
2023-05-13T02:05:31.833Z,9.40
2023-05-13T02:07:32.159Z,9.36
2023-05-13T02:09:32.446Z,9.34
2023-05-13T02:11:32.862Z,9.36
2023-05-13T02:13:33.124Z,9.32
2023-05-13T02:15:33.402Z,9.25
2023-05-13T02:17:33.764Z,9.22
2023-05-13T02:19:38.919Z,9.14
2023-05-13T02:21:39.311Z,9.10
2023-05-13T02:23:39.636Z,9.08
2023-05-13T02:25:39.895Z,9.06
2023-05-13T02:27:40.215Z,9.08
2023-05-13T02:29:41.259Z,9.03
2023-05-13T02:31:41.631Z,9.02
2023-05-13T02:33:42.157Z,9.02
2023-05-13T02:35:42.472Z,9.02
2023-05-13T02:37:43.151Z,9.02
2023-05-13T02:39:43.531Z,9.02
2023-05-13T02:41:43.856Z,9.00
2023-05-13T02:43:44.113Z,8.97
2023-05-13T02:45:44.501Z,8.97
2023-05-13T02:47:44.877Z,9.03
2023-05-13T02:49:45.208Z,9.10
2023-05-13T02:51:45.523Z,9.10
2023-05-13T02:53:45.865Z,9.04
2023-05-13T02:55:46.152Z,9.03
2023-05-13T02:57:46.509Z,9.03
2023-05-13T02:59:46.788Z,9.00
2023-05-13T03:01:47.135Z,9.00
2023-05-13T03:03:47.486Z,9.00
2023-05-13T03:05:47.812Z,9.02
2023-05-13T03:07:48.150Z,9.04
2023-05-13T03:09:48.500Z,9.08
2023-05-13T03:11:48.763Z,9.03
2023-05-13T03:13:49.398Z,9.08
2023-05-13T03:15:49.807Z,9.06
2023-05-13T03:17:50.494Z,9.04
2023-05-13T03:19:50.796Z,9.02
2023-05-13T03:21:51.190Z,8.95
2023-05-13T03:23:51.510Z,8.94
2023-05-13T03:25:51.835Z,8.88
2023-05-13T03:27:52.224Z,8.91
2023-05-13T03:29:52.517Z,8.85
2023-05-13T03:31:53.355Z,8.82
2023-05-13T03:33:53.708Z,8.87
2023-05-13T03:35:54.069Z,8.92
2023-05-13T03:37:54.418Z,8.95
2023-05-13T03:39:54.707Z,9.00
2023-05-13T03:41:55.128Z,9.03
2023-05-13T03:43:55.434Z,9.06
2023-05-13T03:45:55.778Z,9.14
2023-05-13T03:47:56.520Z,9.13
2023-05-13T03:49:56.922Z,9.16
2023-05-13T03:51:57.162Z,9.19
2023-05-13T03:53:57.477Z,9.18
2023-05-13T03:55:57.803Z,9.22
2023-05-13T03:57:58.163Z,9.26
2023-05-13T03:59:58.419Z,9.36
2023-05-13T04:01:58.829Z,9.39
2023-05-13T04:03:59.127Z,9.44
2023-05-13T04:05:59.442Z,9.54
2023-05-13T04:08:00.730Z,9.59
2023-05-13T04:10:00.978Z,9.69
2023-05-13T04:12:01.310Z,9.84
2023-05-13T04:14:01.840Z,9.92
2023-05-13T04:16:02.127Z,9.98
2023-05-13T04:18:02.525Z,10.09
2023-05-13T04:20:02.804Z,10.13
2023-05-13T04:22:04.165Z,10.17
2023-05-13T04:24:04.560Z,10.15
2023-05-13T04:26:04.897Z,10.19
2023-05-13T04:28:05.197Z,10.19
2023-05-13T04:30:05.477Z,10.20
2023-05-13T04:32:05.798Z,10.28
2023-05-13T04:34:06.424Z,10.33
2023-05-13T04:36:06.753Z,10.37
2023-05-13T04:38:07.145Z,10.42
2023-05-13T04:40:07.439Z,10.48
2023-05-13T04:42:08.319Z,10.56
2023-05-13T04:44:08.708Z,10.57
2023-05-13T04:46:09.017Z,10.53
2023-05-13T04:48:09.365Z,10.56
2023-05-13T04:50:09.779Z,10.53
2023-05-13T04:52:10.414Z,10.57
2023-05-13T04:54:10.827Z,10.57
2023-05-13T04:56:11.147Z,10.60
2023-05-13T04:58:11.608Z,10.69
2023-05-13T05:00:11.950Z,10.79
2023-05-13T05:02:12.278Z,10.82
2023-05-13T05:04:12.782Z,10.89
2023-05-13T05:06:13.202Z,10.96
2023-05-13T05:08:13.482Z,11.00
2023-05-13T05:10:13.790Z,11.07
2023-05-13T05:12:14.090Z,11.17
2023-05-13T05:14:14.452Z,11.23
2023-05-13T05:16:14.813Z,11.27
2023-05-13T05:18:15.144Z,11.37
2023-05-13T05:20:15.400Z,11.45
2023-05-13T05:22:16.190Z,11.45
2023-05-13T05:24:16.521Z,11.47
2023-05-13T05:26:16.786Z,11.48
2023-05-13T05:28:17.108Z,11.52
2023-05-13T05:30:17.405Z,11.59
2023-05-13T05:32:17.748Z,11.65
2023-05-13T05:34:18.024Z,11.73
2023-05-13T05:36:18.379Z,11.78
2023-05-13T05:38:18.756Z,11.88
2023-05-13T05:40:19.169Z,11.97
2023-05-13T05:42:20.003Z,12.06
2023-05-13T05:44:21.272Z,12.09
2023-05-13T05:46:21.695Z,12.15
2023-05-13T05:48:22.111Z,12.18
2023-05-13T05:50:22.744Z,12.15
2023-05-13T05:52:23.137Z,12.28
2023-05-13T05:54:23.588Z,12.39
2023-05-13T05:56:23.859Z,12.46
2023-05-13T05:58:24.227Z,12.55
2023-05-13T06:00:24.505Z,12.64
2023-05-13T06:02:25.185Z,12.68
2023-05-13T06:04:25.575Z,12.72
2023-05-13T06:06:25.953Z,12.75
2023-05-13T06:08:26.607Z,12.79
2023-05-13T06:10:26.910Z,12.82
2023-05-13T06:12:27.272Z,12.86
2023-05-13T06:14:27.622Z,12.94
2023-05-13T06:16:28.061Z,12.95
2023-05-13T06:18:28.461Z,13.01
2023-05-13T06:20:28.795Z,13.05
2023-05-13T06:22:29.042Z,13.16
2023-05-13T06:24:29.335Z,13.22
2023-05-13T06:26:29.615Z,13.23
2023-05-13T06:28:29.977Z,13.25
2023-05-13T06:30:30.271Z,13.30
2023-05-13T06:32:30.552Z,13.33
2023-05-13T06:34:30.883Z,13.41
2023-05-13T06:36:31.231Z,13.41
2023-05-13T06:38:31.510Z,13.46
2023-05-13T06:40:31.820Z,13.56
2023-05-13T06:42:32.139Z,13.63
2023-05-13T06:44:32.442Z,13.85
2023-05-13T06:46:32.781Z,14.05
2023-05-13T06:48:33.083Z,14.18
2023-05-13T06:50:33.347Z,14.29
2023-05-13T06:52:33.682Z,14.40
2023-05-13T06:54:33.964Z,14.47
2023-05-13T06:56:34.267Z,14.54
2023-05-13T06:58:34.628Z,14.55
2023-05-13T07:00:35.353Z,14.66
2023-05-13T07:02:35.648Z,14.70
2023-05-13T07:04:35.964Z,14.77
2023-05-13T07:06:36.299Z,14.79
2023-05-13T07:08:36.631Z,14.82
2023-05-13T07:10:37.095Z,14.86
2023-05-13T07:12:37.441Z,14.85
2023-05-13T07:14:37.789Z,14.82
2023-05-13T07:16:38.119Z,14.86
2023-05-13T07:18:38.522Z,14.92
2023-05-13T07:20:38.806Z,14.97
2023-05-13T07:22:39.194Z,14.99
2023-05-13T07:24:39.765Z,15.02
2023-05-13T07:26:40.200Z,14.91
2023-05-13T07:28:40.718Z,14.92
2023-05-13T07:30:41.555Z,14.99
2023-05-13T07:32:42.213Z,14.94
2023-05-13T07:34:43.394Z,14.91
2023-05-13T07:36:44.387Z,14.81
2023-05-13T07:38:44.778Z,14.84
2023-05-13T07:40:45.516Z,14.72
2023-05-13T07:42:45.954Z,14.66
2023-05-13T07:44:46.404Z,14.60
2023-05-13T07:46:46.814Z,14.55
2023-05-13T07:48:47.164Z,14.60
2023-05-13T07:50:47.467Z,14.69
2023-05-13T07:52:51.223Z,14.82
2023-05-13T07:54:51.500Z,15.04
2023-05-13T07:56:51.990Z,15.31
2023-05-13T07:58:52.299Z,15.55
2023-05-13T08:00:52.590Z,15.77
2023-05-13T08:02:53.060Z,16.02
2023-05-13T08:04:53.497Z,16.17
2023-05-13T08:06:53.814Z,16.38
2023-05-13T08:08:54.098Z,16.49
2023-05-13T08:10:54.418Z,16.46
2023-05-13T08:12:54.747Z,16.51
2023-05-13T08:14:55.050Z,16.57
2023-05-13T08:16:55.408Z,16.60
2023-05-13T08:18:55.796Z,16.53
2023-05-13T08:20:56.044Z,16.50
2023-05-13T08:22:56.339Z,16.46
2023-05-13T08:24:56.700Z,16.35
2023-05-13T08:26:57.106Z,16.32
2023-05-13T08:28:57.426Z,16.32
2023-05-13T08:30:57.746Z,16.32
2023-05-13T08:32:58.108Z,16.28
2023-05-13T08:34:58.392Z,16.32
2023-05-13T08:36:58.725Z,16.38
2023-05-13T08:38:58.992Z,16.36
2023-05-13T08:40:59.320Z,16.39
2023-05-13T08:42:59.582Z,16.35
2023-05-13T08:44:59.890Z,16.32
2023-05-13T08:47:00.734Z,16.35
2023-05-13T08:49:01.022Z,16.38
2023-05-13T08:51:01.352Z,16.33
2023-05-13T08:53:01.606Z,16.32
2023-05-13T08:55:01.944Z,16.31
2023-05-13T08:57:02.266Z,16.31
2023-05-13T08:59:02.562Z,16.24
2023-05-13T09:01:07.815Z,16.31
2023-05-13T09:03:08.286Z,16.26
2023-05-13T09:05:08.578Z,16.31
2023-05-13T09:07:09.306Z,16.39
2023-05-13T09:09:09.557Z,16.49
2023-05-13T09:11:09.940Z,16.58
2023-05-13T09:13:10.290Z,16.72
2023-05-13T09:15:10.550Z,16.81
2023-05-13T09:17:10.906Z,16.97
2023-05-13T09:19:11.287Z,17.09
2023-05-13T09:21:11.800Z,17.16
2023-05-13T09:23:12.187Z,17.29
2023-05-13T09:25:12.540Z,17.38
2023-05-13T09:27:12.891Z,17.46
2023-05-13T09:29:13.170Z,17.52
2023-05-13T09:31:13.541Z,17.57
2023-05-13T09:33:13.927Z,17.60
2023-05-13T09:35:14.323Z,17.59
2023-05-13T09:37:14.617Z,17.68
2023-05-13T09:39:14.984Z,17.78
2023-05-13T09:41:15.491Z,17.89
2023-05-13T09:43:15.871Z,18.05
2023-05-13T09:45:16.341Z,18.15
2023-05-13T09:47:17.112Z,18.16
2023-05-13T09:49:17.401Z,18.23
2023-05-13T09:51:17.747Z,18.38
2023-05-13T09:53:18.053Z,18.58
2023-05-13T09:55:18.520Z,18.59
2023-05-13T09:57:18.902Z,18.60
2023-05-13T09:59:19.319Z,18.70
2023-05-13T10:01:19.678Z,18.80
2023-05-13T10:03:19.961Z,18.86
2023-05-13T10:05:20.282Z,18.89
2023-05-13T10:07:20.707Z,18.98
2023-05-13T10:09:21.361Z,19.12
2023-05-13T10:11:21.630Z,19.26
2023-05-13T10:13:22.028Z,19.37
2023-05-13T10:15:22.418Z,19.36
2023-05-13T10:17:22.678Z,19.37
2023-05-13T10:19:23.016Z,19.31
2023-05-13T10:21:23.344Z,19.26
2023-05-13T10:23:23.656Z,19.22
2023-05-13T10:25:24.157Z,19.11
2023-05-13T10:27:24.705Z,19.15
2023-05-13T10:29:25.291Z,19.14
2023-05-13T10:31:25.794Z,19.15
2023-05-13T10:33:26.349Z,19.08
2023-05-13T10:35:33.917Z,19.12
2023-05-13T10:37:39.943Z,19.29
2023-05-13T10:40:24.485Z,19.31
2023-05-13T10:42:25.096Z,19.27
2023-05-13T10:44:25.492Z,19.19
2023-05-13T10:46:26.007Z,19.19
2023-05-13T10:48:26.485Z,19.04
2023-05-13T10:50:26.852Z,19.02
2023-05-13T10:52:27.213Z,19.26
2023-05-13T10:54:27.602Z,19.45
2023-05-13T10:56:28.029Z,19.48
2023-05-13T10:58:28.343Z,19.41
2023-05-13T11:00:28.630Z,19.66
2023-05-13T11:02:28.975Z,19.91
2023-05-13T11:04:29.346Z,20.11
2023-05-13T11:06:29.600Z,20.26
2023-05-13T11:08:29.889Z,20.28
2023-05-13T11:10:30.281Z,20.32
2023-05-13T11:12:30.570Z,20.47
2023-05-13T11:14:30.863Z,20.93
2023-05-13T11:16:31.194Z,21.24
2023-05-13T11:18:31.548Z,21.51
2023-05-13T11:20:39.951Z,21.67
2023-05-13T11:22:37.035Z,21.89
2023-05-13T11:24:37.382Z,22.07
2023-05-13T11:26:37.679Z,21.98
2023-05-13T11:28:37.969Z,21.69
2023-05-13T11:30:38.234Z,21.39
2023-05-13T11:32:38.630Z,20.95
2023-05-13T11:34:38.861Z,20.66
2023-05-13T11:36:39.172Z,20.47
2023-05-13T11:38:39.439Z,20.31
2023-05-13T11:40:39.824Z,20.11
2023-05-13T11:42:40.159Z,19.92
2023-05-13T11:44:40.445Z,19.84
2023-05-13T11:46:40.743Z,19.91
2023-05-13T11:48:41.073Z,19.82
2023-05-13T11:50:41.432Z,19.86
2023-05-13T11:52:41.729Z,19.84
2023-05-13T11:54:42.058Z,19.81
2023-05-13T11:56:42.305Z,19.81
2023-05-13T11:58:42.662Z,19.66
2023-05-13T12:00:44.582Z,19.51
2023-05-13T12:02:46.249Z,19.40
2023-05-13T12:04:46.589Z,19.31
2023-05-13T12:06:46.906Z,19.39
2023-05-13T12:08:47.208Z,19.54
2023-05-13T12:10:47.532Z,19.69
2023-05-13T12:12:47.872Z,19.81
2023-05-13T12:14:48.141Z,20.00
2023-05-13T12:16:48.523Z,20.36
2023-05-13T12:18:48.861Z,20.77
2023-05-13T12:20:49.205Z,21.02
2023-05-13T12:22:49.465Z,21.55
2023-05-13T12:24:49.876Z,21.75
2023-05-13T12:26:50.163Z,21.67
2023-05-13T12:28:50.468Z,21.51
2023-05-13T12:30:50.744Z,21.33
2023-05-13T12:32:51.128Z,21.17
2023-05-13T12:34:51.423Z,21.21
2023-05-13T12:36:51.760Z,21.15
2023-05-13T12:38:52.054Z,21.15
2023-05-13T12:40:52.355Z,21.20
2023-05-13T12:42:52.634Z,21.33
2023-05-13T12:44:52.953Z,21.45
2023-05-13T12:46:53.460Z,21.66
2023-05-13T12:48:53.858Z,21.70
2023-05-13T12:50:54.169Z,21.85
2023-05-13T12:52:54.465Z,21.92
2023-05-13T12:54:54.879Z,22.13
2023-05-13T12:56:55.184Z,22.33
2023-05-13T12:58:55.494Z,22.43
2023-05-13T13:00:55.798Z,22.48
2023-05-13T13:02:56.187Z,22.50
2023-05-13T13:04:56.478Z,22.51
2023-05-13T13:06:56.774Z,22.18
2023-05-13T13:08:57.079Z,22.02
2023-05-13T13:10:57.477Z,21.92
2023-05-13T13:12:57.805Z,22.14
2023-05-13T13:14:58.073Z,22.20
2023-05-13T13:16:58.415Z,22.35
2023-05-13T13:18:59.884Z,22.45
2023-05-13T13:21:01.883Z,22.91
2023-05-13T13:23:02.192Z,23.47
2023-05-13T13:25:02.485Z,23.93
2023-05-13T13:27:02.891Z,24.33
2023-05-13T13:29:03.235Z,24.66
2023-05-13T13:31:08.495Z,24.65
2023-05-13T13:33:10.783Z,24.42
2023-05-13T13:35:13.158Z,24.65
2023-05-13T13:37:13.427Z,24.88
2023-05-13T13:39:13.680Z,25.13
2023-05-13T13:41:13.988Z,25.28
2023-05-13T13:43:14.262Z,25.44
2023-05-13T13:45:14.562Z,25.58
2023-05-13T13:47:14.878Z,25.78
2023-05-13T13:49:23.034Z,25.73
2023-05-13T13:51:20.465Z,24.93
2023-05-13T13:53:20.827Z,24.13
2023-05-13T13:55:21.184Z,23.88
2023-05-13T13:57:21.613Z,23.73
2023-05-13T13:59:21.941Z,23.74
2023-05-13T14:01:22.349Z,23.86
2023-05-13T14:03:22.794Z,23.96
2023-05-13T14:05:23.111Z,24.16
2023-05-13T14:07:23.402Z,24.61
2023-05-13T14:09:23.766Z,24.84
2023-05-13T14:11:24.008Z,24.89
2023-05-13T14:13:24.313Z,24.95
2023-05-13T14:15:24.592Z,24.78
2023-05-13T14:17:24.989Z,24.58
2023-05-13T14:19:25.264Z,24.43
2023-05-13T14:21:25.535Z,24.66
2023-05-13T14:23:25.854Z,24.78
2023-05-13T14:25:26.115Z,24.69
2023-05-13T14:27:26.433Z,24.70
2023-05-13T14:29:26.758Z,24.61
2023-05-13T14:31:27.045Z,24.28
2023-05-13T14:33:27.329Z,24.02
2023-05-13T14:35:27.613Z,23.84
2023-05-13T14:37:27.999Z,23.56
2023-05-13T14:39:28.284Z,23.20
2023-05-13T14:41:28.614Z,22.60
2023-05-13T14:43:28.865Z,22.11
2023-05-13T14:45:29.334Z,21.88
2023-05-13T14:47:29.654Z,21.69
2023-05-13T14:49:29.929Z,21.39
2023-05-13T14:51:30.298Z,21.20
2023-05-13T14:53:30.650Z,20.96
2023-05-13T14:55:30.939Z,20.82
2023-05-13T14:57:31.209Z,20.56
2023-05-13T14:59:31.513Z,20.40
2023-05-13T15:01:31.840Z,20.36
2023-05-13T15:03:33.125Z,20.32
2023-05-13T15:05:33.458Z,20.34
2023-05-13T15:07:33.819Z,20.41
2023-05-13T15:09:34.058Z,20.48
2023-05-13T15:11:34.424Z,20.74
2023-05-13T15:13:34.667Z,21.03
2023-05-13T15:15:35.079Z,21.36
2023-05-13T15:17:35.408Z,21.55
2023-05-13T15:19:35.708Z,21.98
2023-05-13T15:21:35.965Z,22.47
2023-05-13T15:23:36.286Z,23.06
2023-05-13T15:25:36.595Z,23.58
2023-05-13T15:27:36.922Z,23.86
2023-05-13T15:29:37.191Z,23.88
2023-05-13T15:31:37.493Z,24.01
2023-05-13T15:33:37.778Z,24.14
2023-05-13T15:35:38.102Z,24.20
2023-05-13T15:37:38.371Z,23.99
2023-05-13T15:39:38.709Z,23.88
2023-05-13T15:41:39.036Z,23.86
2023-05-13T15:43:39.592Z,23.84
2023-05-13T15:46:21.484Z,24.01
2023-05-13T15:48:21.904Z,24.05
2023-05-13T15:50:22.406Z,24.06
2023-05-13T15:52:22.972Z,24.17
2023-05-13T15:54:23.259Z,23.81
2023-05-13T15:56:23.560Z,23.54
2023-05-13T15:58:23.837Z,24.13
2023-05-13T16:00:24.555Z,23.32
2023-05-13T16:02:25.044Z,22.55
2023-05-13T16:04:25.406Z,21.83
2023-05-13T16:06:25.698Z,21.35
2023-05-13T16:08:26.998Z,20.78
2023-05-13T16:10:27.332Z,19.94
2023-05-13T16:12:27.656Z,19.31
2023-05-13T16:14:27.942Z,18.84
2023-05-13T16:16:28.278Z,18.47
2023-05-13T16:18:28.601Z,18.15
2023-05-13T16:20:28.992Z,17.82
2023-05-13T16:22:29.266Z,17.38
2023-05-13T16:24:29.583Z,17.11
2023-05-13T16:26:29.901Z,16.91
2023-05-13T16:28:30.263Z,16.71
2023-05-13T16:30:30.597Z,16.54
2023-05-13T16:32:30.923Z,16.49
2023-05-13T16:34:31.232Z,16.54
2023-05-13T16:36:31.547Z,16.53
2023-05-13T16:38:31.792Z,16.51
2023-05-13T16:40:32.128Z,16.58
2023-05-13T16:42:32.417Z,16.60
2023-05-13T16:44:32.732Z,16.64
2023-05-13T16:46:33.112Z,16.68
2023-05-13T16:48:33.449Z,16.75
2023-05-13T16:50:33.711Z,16.84
2023-05-13T16:52:34.042Z,16.93
2023-05-13T16:54:34.381Z,16.96
2023-05-13T16:56:34.692Z,16.93
2023-05-13T16:58:35.000Z,16.89
2023-05-13T17:00:35.248Z,16.84
2023-05-13T17:02:35.712Z,16.74
2023-05-13T17:04:36.101Z,16.69
2023-05-13T17:06:36.346Z,16.60
2023-05-13T17:08:36.654Z,16.57
2023-05-13T17:10:37.012Z,16.56
2023-05-13T17:12:37.335Z,16.54
2023-05-13T17:14:37.590Z,16.56
2023-05-13T17:16:37.846Z,16.60
2023-05-13T17:18:38.197Z,16.57
2023-05-13T17:20:38.484Z,16.47
2023-05-13T17:22:38.777Z,16.35
2023-05-13T17:24:39.109Z,16.26
2023-05-13T17:26:39.384Z,16.15
2023-05-13T17:28:39.712Z,16.15
2023-05-13T17:30:39.961Z,16.10
2023-05-13T17:32:40.396Z,16.05
2023-05-13T17:34:40.722Z,16.01
2023-05-13T17:36:41.039Z,16.04
2023-05-13T17:38:41.311Z,16.09
2023-05-13T17:40:41.597Z,16.13
2023-05-13T17:42:41.842Z,16.23
2023-05-13T17:44:42.149Z,16.29
2023-05-13T17:46:42.513Z,16.31
2023-05-13T17:48:42.971Z,16.29
2023-05-13T17:50:43.431Z,16.28
2023-05-13T17:52:43.719Z,16.24
2023-05-13T17:54:44.047Z,16.17
2023-05-13T17:56:44.350Z,16.08
2023-05-13T17:58:44.651Z,16.00
2023-05-13T18:00:44.923Z,15.90
2023-05-13T18:02:45.252Z,15.88
2023-05-13T18:04:45.487Z,15.79
2023-05-13T18:06:45.794Z,15.75
2023-05-13T18:08:46.119Z,15.68
2023-05-13T18:10:46.425Z,15.65
2023-05-13T18:12:46.695Z,15.67
2023-05-13T18:14:46.977Z,15.64
2023-05-13T18:16:47.323Z,15.64
2023-05-13T18:18:47.731Z,15.65
2023-05-13T18:20:48.042Z,15.61
2023-05-13T18:22:48.328Z,15.61
2023-05-13T18:24:48.633Z,15.59
2023-05-13T18:26:48.973Z,15.58
2023-05-13T18:28:49.239Z,15.58
2023-05-13T18:30:49.564Z,15.59
2023-05-13T18:32:50.013Z,15.58
2023-05-13T18:34:50.338Z,15.51
2023-05-13T18:36:51.926Z,15.46
2023-05-13T18:38:52.411Z,15.42
2023-05-13T18:40:52.730Z,15.40
2023-05-13T18:42:53.088Z,15.37
2023-05-13T18:44:53.337Z,15.36
2023-05-13T18:46:53.646Z,15.36
2023-05-13T18:48:53.941Z,15.36
2023-05-13T18:50:54.246Z,15.37
2023-05-13T18:52:54.580Z,15.35
2023-05-13T18:54:54.868Z,15.33
2023-05-13T18:56:55.248Z,15.29
2023-05-13T18:58:55.523Z,15.29
2023-05-13T19:00:55.837Z,15.27
2023-05-13T19:02:56.358Z,15.25
2023-05-13T19:04:56.754Z,15.24
2023-05-13T19:06:57.040Z,15.19
2023-05-13T19:08:57.353Z,15.14
2023-05-13T19:10:57.655Z,15.03
2023-05-13T19:12:57.996Z,15.00
2023-05-13T19:14:58.288Z,14.94
2023-05-13T19:16:58.683Z,14.89
2023-05-13T19:18:59.015Z,14.86
2023-05-13T19:20:59.314Z,14.82
2023-05-13T19:22:59.711Z,14.79
2023-05-13T19:25:00.142Z,14.78
2023-05-13T19:27:00.495Z,14.79
2023-05-13T19:29:00.861Z,14.84
2023-05-13T19:31:01.185Z,14.84
2023-05-13T19:33:01.580Z,14.86
2023-05-13T19:35:01.909Z,14.86
2023-05-13T19:37:02.273Z,14.88
2023-05-13T19:39:02.656Z,14.85
2023-05-13T19:41:02.957Z,14.86
2023-05-13T19:43:03.306Z,14.85
2023-05-13T19:45:03.606Z,14.81
2023-05-13T19:47:04.000Z,14.84
2023-05-13T19:49:04.334Z,14.86
2023-05-13T19:51:04.706Z,14.82
2023-05-13T19:53:05.003Z,14.86
2023-05-13T19:55:05.354Z,14.85
2023-05-13T19:57:05.610Z,14.86
2023-05-13T19:59:06.036Z,14.89
2023-05-13T20:01:06.356Z,14.89
2023-05-13T20:03:06.818Z,14.94
2023-05-13T20:05:07.173Z,14.94
2023-05-13T20:07:12.310Z,14.91
2023-05-13T20:09:12.680Z,14.96
2023-05-13T20:11:13.006Z,14.96
2023-05-13T20:13:13.382Z,14.96
2023-05-13T20:15:13.675Z,14.99
2023-05-13T20:17:14.025Z,14.96
2023-05-13T20:19:14.372Z,15.02
2023-05-13T20:21:14.693Z,15.00
2023-05-13T20:23:15.015Z,14.99
2023-05-13T20:25:15.304Z,14.96
2023-05-13T20:27:15.622Z,14.92
2023-05-13T20:29:15.898Z,14.88
2023-05-13T20:31:16.292Z,14.84
2023-05-13T20:33:21.416Z,14.81
2023-05-13T20:35:21.677Z,14.79
2023-05-13T20:37:23.771Z,14.77
2023-05-13T20:39:24.505Z,14.77
2023-05-13T20:41:24.876Z,14.73
2023-05-13T20:43:25.214Z,14.69
2023-05-13T20:45:25.465Z,14.72
2023-05-13T20:47:25.799Z,14.68
2023-05-13T20:49:26.125Z,14.66
2023-05-13T20:51:26.569Z,14.68
2023-05-13T20:53:26.844Z,14.65
2023-05-13T20:55:27.167Z,14.63
2023-05-13T20:57:27.438Z,14.62
2023-05-13T20:59:27.740Z,14.60
2023-05-13T21:01:28.181Z,14.60
2023-05-13T21:03:33.382Z,14.54
2023-05-13T21:05:33.823Z,14.50
2023-05-13T21:07:34.118Z,14.48
2023-05-13T21:09:34.442Z,14.43
2023-05-13T21:11:34.917Z,14.36
2023-05-13T21:13:36.121Z,14.33
2023-05-13T21:15:36.410Z,14.28
2023-05-13T21:17:36.782Z,14.18
2023-05-13T21:19:41.993Z,14.05
2023-05-13T21:21:42.302Z,13.95
2023-05-13T21:23:42.604Z,13.85
2023-05-13T21:25:42.888Z,13.74
2023-05-13T21:27:43.250Z,13.59
2023-05-13T21:29:43.504Z,13.50
2023-05-13T21:31:43.977Z,13.42
2023-05-13T21:33:44.378Z,13.33
2023-05-13T21:35:44.963Z,13.25
2023-05-13T21:37:47.202Z,13.19
2023-05-13T21:39:51.397Z,13.08
2023-05-13T21:41:51.722Z,13.01
2023-05-13T21:43:52.103Z,12.97
2023-05-13T21:45:52.392Z,12.90
2023-05-13T21:47:52.722Z,12.95
2023-05-13T21:49:53.022Z,12.98
2023-05-13T21:51:53.311Z,13.09
2023-05-13T21:53:53.692Z,13.13
2023-05-13T21:55:54.008Z,13.15
2023-05-13T21:57:54.325Z,13.18
2023-05-13T21:59:54.643Z,13.20
2023-05-13T22:01:54.953Z,13.27
2023-05-13T22:03:55.292Z,13.23
2023-05-13T22:05:55.599Z,13.27
2023-05-13T22:07:55.877Z,13.20
2023-05-13T22:09:56.171Z,13.25
2023-05-13T22:11:56.489Z,13.27
2023-05-13T22:13:57.724Z,13.22
2023-05-13T22:15:57.994Z,13.23
2023-05-13T22:17:58.415Z,13.18
2023-05-13T22:19:58.803Z,13.15
2023-05-13T22:21:59.203Z,13.11
2023-05-13T22:23:59.539Z,13.08
2023-05-13T22:25:59.977Z,13.08
2023-05-13T22:28:00.371Z,13.05
2023-05-13T22:30:00.717Z,13.05
2023-05-13T22:32:01.135Z,13.03
2023-05-13T22:34:01.480Z,13.03
2023-05-13T22:36:01.849Z,12.94
2023-05-13T22:38:02.201Z,12.94
2023-05-13T22:40:02.605Z,12.85
2023-05-13T22:42:02.870Z,12.76
2023-05-13T22:44:03.208Z,12.70
2023-05-13T22:46:03.577Z,12.62
2023-05-13T22:48:03.891Z,12.62
2023-05-13T22:50:04.278Z,12.61
2023-05-13T22:52:04.579Z,12.60
2023-05-13T22:54:04.919Z,12.67
2023-05-13T22:56:05.282Z,12.72
2023-05-13T22:58:05.706Z,12.75
2023-05-13T23:00:06.041Z,12.73
2023-05-13T23:02:06.345Z,12.75
2023-05-13T23:04:06.683Z,12.70
2023-05-13T23:06:06.968Z,12.68
2023-05-13T23:08:07.287Z,12.70
2023-05-13T23:10:07.688Z,12.70
2023-05-13T23:12:08.016Z,12.67
2023-05-13T23:14:08.433Z,12.64
2023-05-13T23:16:08.840Z,12.58
2023-05-13T23:18:09.270Z,12.55
2023-05-13T23:20:09.516Z,12.53
2023-05-13T23:22:09.979Z,12.50
2023-05-13T23:24:10.354Z,12.53
2023-05-13T23:26:10.742Z,12.46
2023-05-13T23:28:11.026Z,12.46
2023-05-13T23:30:11.355Z,12.43
2023-05-13T23:32:11.687Z,12.43
2023-05-13T23:34:11.979Z,12.43
2023-05-13T23:36:12.316Z,12.49
2023-05-13T23:38:12.630Z,12.47
2023-05-13T23:40:12.968Z,12.47
2023-05-13T23:42:13.289Z,12.53
2023-05-13T23:44:13.671Z,12.57
2023-05-13T23:46:14.021Z,12.57
2023-05-13T23:48:14.359Z,12.58
2023-05-13T23:50:14.791Z,12.60
2023-05-13T23:52:15.075Z,12.64
2023-05-13T23:54:15.420Z,12.62
2023-05-13T23:56:15.818Z,12.70
2023-05-13T23:58:16.162Z,12.72
